PWSweather.com
Personal Weather Stations
Station Observations
ALMOSTER
Urb. Mas Carreras, AlmosterES 43393

Urb. Mas CarrerasAlmosterES 43393

Lat: 41.1908333333, Lon: 1.1086111111

Elevation: 836.6

Station Type: Davis Vantage Pro 2

http://www.meteoalmoster.net

High Low Average
Temperature 74.8°F23.8°F 58.3°F14.6°F 64.2°F17.9°F
Dew Point 57.2°F14.0°F 42.6°F5.9°F 51.5°F10.8°F
Winds 13.0 mph SSE20.9 mph SSE Calm Calm 3.6 mph 5.8 mph
Wind Gusts 21.0 mph33.8 mph -- 8.2 mph13.2 mph
Humidity 94% 43% 65%
Pressure 30.06 in1017.90 in 29.95 in1014.20 in -
Precipitation 0.00 in0.00 in - -
Hour Temp Dew Point Humidity Winds Wind Gusts Pressure Precip Precip Rate Daily Precip Total
12:00 AM 65.8°F18.8°C 42.6°F5.9°C 43% 1.0 mph NW1.6 kmh NW 7.0 mph11.3 kmh 30.06 in1017.9 mb 0.00 in0.0 mm 0.00 in0.0 mm 0.00 in0.0 mm
12:30 AM 65.3°F18.5°C 44.1°F6.7°C 46% 1.0 mph ENE1.6 kmh ENE 5.0 mph8.0 kmh 30.05 in1017.6 mb 0.00 in0.0 mm 0.00 in0.0 mm 0.00 in0.0 mm
01:00 AM 63.1°F17.3°C 43.7°F6.5°C 49% Calm Calm -- 30.05 in1017.6 mb 0.00 in0.0 mm 0.00 in0.0 mm 0.00 in0.0 mm
01:30 AM 62.1°F16.7°C 43.2°F6.2°C 50% Calm Calm -- 30.05 in1017.6 mb 0.00 in0.0 mm 0.00 in0.0 mm 0.00 in0.0 mm
02:00 AM 61.5°F16.4°C 46.2°F7.9°C 57% Calm Calm -- 30.05 in1017.6 mb 0.00 in0.0 mm 0.00 in0.0 mm 0.00 in0.0 mm
02:30 AM 60.4°F15.8°C 46.9°F8.3°C 61% Calm Calm -- 30.04 in1017.3 mb 0.00 in0.0 mm 0.00 in0.0 mm 0.00 in0.0 mm
03:00 AM 60.4°F15.8°C 47.3°F8.5°C 62% 6.0 mph NW9.7 kmh NW 11.0 mph17.7 kmh 30.03 in1016.9 mb 0.00 in0.0 mm 0.00 in0.0 mm 0.00 in0.0 mm
03:30 AM 59.7°F15.4°C 47.5°F8.6°C 64% 9.0 mph NW14.5 kmh NW 15.0 mph24.1 kmh 30.03 in1016.9 mb 0.00 in0.0 mm 0.00 in0.0 mm 0.00 in0.0 mm
04:00 AM 59.0°F15.0°C 47.3°F8.5°C 65% 1.0 mph NW1.6 kmh NW 8.0 mph12.9 kmh 30.02 in1016.6 mb 0.00 in0.0 mm 0.00 in0.0 mm 0.00 in0.0 mm
04:30 AM 59.5°F15.3°C 48.2°F9.0°C 66% 3.0 mph NW4.8 kmh NW 11.0 mph17.7 kmh 30.02 in1016.6 mb 0.00 in0.0 mm 0.00 in0.0 mm 0.00 in0.0 mm
05:00 AM 58.8°F14.9°C 47.5°F8.6°C 66% 6.0 mph NW9.7 kmh NW 12.0 mph19.3 kmh 30.00 in1015.9 mb 0.00 in0.0 mm 0.00 in0.0 mm 0.00 in0.0 mm
05:30 AM 60.1°F15.6°C 47.5°F8.6°C 63% 1.0 mph N1.6 kmh N 8.0 mph12.9 kmh 30.00 in1015.9 mb 0.00 in0.0 mm 0.00 in0.0 mm 0.00 in0.0 mm
06:00 AM 58.3°F14.6°C 47.3°F8.5°C 67% 8.0 mph NW12.9 kmh NW 13.0 mph20.9 kmh 30.01 in1016.3 mb 0.00 in0.0 mm 0.00 in0.0 mm 0.00 in0.0 mm
06:30 AM 58.5°F14.7°C 47.1°F8.4°C 66% 6.0 mph NW9.7 kmh NW 11.0 mph17.7 kmh 30.02 in1016.6 mb 0.00 in0.0 mm 0.00 in0.0 mm 0.00 in0.0 mm
07:00 AM 59.9°F15.5°C 48.6°F9.2°C 66% 1.0 mph NNW1.6 kmh NNW 8.0 mph12.9 kmh 30.03 in1016.9 mb 0.00 in0.0 mm 0.00 in0.0 mm 0.00 in0.0 mm
07:30 AM 60.3°F15.7°C 49.6°F9.8°C 68% Calm Calm -- 30.05 in1017.6 mb 0.00 in0.0 mm 0.00 in0.0 mm 0.00 in0.0 mm
08:00 AM 62.1°F16.7°C 50.5°F10.3°C 66% Calm Calm -- 30.06 in1017.9 mb 0.00 in0.0 mm 0.00 in0.0 mm 0.00 in0.0 mm
08:30 AM 65.1°F18.4°C 50.0°F10.0°C 58% Calm Calm 1.0 mph1.6 kmh 30.06 in1017.9 mb 0.00 in0.0 mm 0.00 in0.0 mm 0.00 in0.0 mm
09:00 AM 64.0°F17.8°C 49.8°F9.9°C 60% 5.0 mph WSW8.0 kmh WSW 10.0 mph16.1 kmh 30.05 in1017.6 mb 0.00 in0.0 mm 0.00 in0.0 mm 0.00 in0.0 mm
09:30 AM 65.3°F18.5°C 49.6°F9.8°C 57% 6.0 mph W9.7 kmh W 11.0 mph17.7 kmh 30.05 in1017.6 mb 0.00 in0.0 mm 0.00 in0.0 mm 0.00 in0.0 mm
10:00 AM 67.8°F19.9°C 51.1°F10.6°C 55% 4.0 mph WNW6.4 kmh WNW 12.0 mph19.3 kmh 30.05 in1017.6 mb 0.00 in0.0 mm 0.00 in0.0 mm 0.00 in0.0 mm
10:30 AM 68.4°F20.2°C 51.1°F10.6°C 54% 2.0 mph SE3.2 kmh SE 9.0 mph14.5 kmh 30.05 in1017.6 mb 0.00 in0.0 mm 0.00 in0.0 mm 0.00 in0.0 mm
11:00 AM 69.8°F21.0°C 50.9°F10.5°C 51% 1.0 mph SSW1.6 kmh SSW 7.0 mph11.3 kmh 30.04 in1017.3 mb 0.00 in0.0 mm 0.00 in0.0 mm 0.00 in0.0 mm
11:30 AM 71.2°F21.8°C 51.1°F10.6°C 49% 1.0 mph WNW1.6 kmh WNW 11.0 mph17.7 kmh 30.03 in1016.9 mb 0.00 in0.0 mm 0.00 in0.0 mm 0.00 in0.0 mm
12:00 PM 71.2°F21.8°C 52.7°F11.5°C 52% 1.0 mph ENE1.6 kmh ENE 5.0 mph8.0 kmh 30.02 in1016.6 mb 0.00 in0.0 mm 0.00 in0.0 mm 0.00 in0.0 mm
12:30 PM 72.9°F22.7°C 53.1°F11.7°C 50% Calm Calm 3.0 mph4.8 kmh 30.00 in1015.9 mb 0.00 in0.0 mm 0.00 in0.0 mm 0.00 in0.0 mm
01:00 PM 73.6°F23.1°C 52.7°F11.5°C 48% 1.0 mph W1.6 kmh W 5.0 mph8.0 kmh 29.99 in1015.6 mb 0.00 in0.0 mm 0.00 in0.0 mm 0.00 in0.0 mm
01:30 PM 73.9°F23.3°C 52.3°F11.3°C 47% 4.0 mph SE6.4 kmh SE 10.0 mph16.1 kmh 29.98 in1015.2 mb 0.00 in0.0 mm 0.00 in0.0 mm 0.00 in0.0 mm
02:00 PM 74.8°F23.8°C 51.4°F10.8°C 44% 7.0 mph SW11.3 kmh SW 13.0 mph20.9 kmh 29.98 in1015.2 mb 0.00 in0.0 mm 0.00 in0.0 mm 0.00 in0.0 mm
02:30 PM 73.2°F22.9°C 52.9°F11.6°C 49% 13.0 mph SSE20.9 kmh SSE 21.0 mph33.8 kmh 29.98 in1015.2 mb 0.00 in0.0 mm 0.00 in0.0 mm 0.00 in0.0 mm
03:00 PM 73.8°F23.2°C 54.0°F12.2°C 50% 10.0 mph S16.1 kmh S 18.0 mph29.0 kmh 29.96 in1014.6 mb 0.00 in0.0 mm 0.00 in0.0 mm 0.00 in0.0 mm
03:30 PM 74.3°F23.5°C 54.0°F12.2°C 49% 10.0 mph S16.1 kmh S 18.0 mph29.0 kmh 29.95 in1014.2 mb 0.00 in0.0 mm 0.00 in0.0 mm 0.00 in0.0 mm
04:00 PM 69.4°F20.8°C 55.4°F13.0°C 61% 9.0 mph SSW14.5 kmh SSW 15.0 mph24.1 kmh 29.96 in1014.6 mb 0.00 in0.0 mm 0.00 in0.0 mm 0.00 in0.0 mm
04:30 PM 68.2°F20.1°C 54.3°F12.4°C 61% 7.0 mph SSW11.3 kmh SSW 13.0 mph20.9 kmh 29.96 in1014.6 mb 0.00 in0.0 mm 0.00 in0.0 mm 0.00 in0.0 mm
05:00 PM 66.4°F19.1°C 54.1°F12.3°C 65% 9.0 mph S14.5 kmh S 15.0 mph24.1 kmh 29.98 in1015.2 mb 0.00 in0.0 mm 0.00 in0.0 mm 0.00 in0.0 mm
05:30 PM 66.0°F18.9°C 54.0°F12.2°C 65% 10.0 mph SSW16.1 kmh SSW 17.0 mph27.4 kmh 29.98 in1015.2 mb 0.00 in0.0 mm 0.00 in0.0 mm 0.00 in0.0 mm
06:00 PM 63.0°F17.2°C 56.7°F13.7°C 80% 7.0 mph SSW11.3 kmh SSW 13.0 mph20.9 kmh 29.99 in1015.6 mb 0.00 in0.0 mm 0.00 in0.0 mm 0.00 in0.0 mm
06:30 PM 61.9°F16.6°C 56.8°F13.8°C 84% 5.0 mph SW8.0 kmh SW 12.0 mph19.3 kmh 29.99 in1015.6 mb 0.00 in0.0 mm 0.00 in0.0 mm 0.00 in0.0 mm
07:00 PM 61.2°F16.2°C 56.5°F13.6°C 85% 4.0 mph S6.4 kmh S 11.0 mph17.7 kmh 29.99 in1015.6 mb 0.00 in0.0 mm 0.00 in0.0 mm 0.00 in0.0 mm
07:30 PM 60.3°F15.7°C 56.7°F13.7°C 88% 5.0 mph S8.0 kmh S 11.0 mph17.7 kmh 30.00 in1015.9 mb 0.00 in0.0 mm 0.00 in0.0 mm 0.00 in0.0 mm
08:00 PM 59.5°F15.3°C 56.7°F13.7°C 90% 5.0 mph S8.0 kmh S 9.0 mph14.5 kmh 30.01 in1016.3 mb 0.00 in0.0 mm 0.00 in0.0 mm 0.00 in0.0 mm
08:30 PM 59.4°F15.2°C 56.7°F13.7°C 91% 3.0 mph S4.8 kmh S 8.0 mph12.9 kmh 30.01 in1016.3 mb 0.00 in0.0 mm 0.00 in0.0 mm 0.00 in0.0 mm
09:00 PM 59.2°F15.1°C 56.8°F13.8°C 92% 2.0 mph SSE3.2 kmh SSE 8.0 mph12.9 kmh 30.01 in1016.3 mb 0.00 in0.0 mm 0.00 in0.0 mm 0.00 in0.0 mm
09:30 PM 59.0°F15.0°C 57.0°F13.9°C 94% Calm Calm -- 30.02 in1016.6 mb 0.00 in0.0 mm 0.00 in0.0 mm 0.00 in0.0 mm
10:00 PM 59.0°F15.0°C 57.2°F14.0°C 94% Calm Calm -- 30.02 in1016.6 mb 0.00 in0.0 mm 0.00 in0.0 mm 0.00 in0.0 mm
10:30 PM 58.8°F14.9°C 57.0°F13.9°C 94% Calm Calm -- 30.01 in1016.3 mb 0.00 in0.0 mm 0.00 in0.0 mm 0.00 in0.0 mm
11:00 PM 58.8°F14.9°C 57.0°F13.9°C 94% Calm Calm -- 29.99 in1015.6 mb 0.00 in0.0 mm 0.00 in0.0 mm 0.00 in0.0 mm
11:30 PM 58.6°F14.8°C 56.7°F13.7°C 93% Calm Calm -- 29.99 in1015.6 mb 0.00 in0.0 mm 0.00 in0.0 mm 0.00 in0.0 mm